sensor_id;sensor_type;location;lat;lon;timestamp;P1;durP1;ratioP1;P2;durP2;ratioP2
27580;SDS011;15013;52.298;7.978;2022-08-30T00:01:52;5.38;;;2.90;;
27580;SDS011;15013;52.298;7.978;2022-08-30T00:06:52;5.57;;;2.90;;
27580;SDS011;15013;52.298;7.978;2022-08-30T00:11:53;5.00;;;2.90;;
27580;SDS011;15013;52.298;7.978;2022-08-30T00:16:53;3.60;;;2.90;;
27580;SDS011;15013;52.298;7.978;2022-08-30T00:21:54;3.92;;;3.08;;
27580;SDS011;15013;52.298;7.978;2022-08-30T00:26:54;3.60;;;2.70;;
27580;SDS011;15013;52.298;7.978;2022-08-30T00:31:55;3.25;;;2.60;;
27580;SDS011;15013;52.298;7.978;2022-08-30T00:36:55;4.23;;;2.67;;
27580;SDS011;15013;52.298;7.978;2022-08-30T00:41:56;6.10;;;2.75;;
27580;SDS011;15013;52.298;7.978;2022-08-30T00:46:56;4.65;;;2.80;;
27580;SDS011;15013;52.298;7.978;2022-08-30T00:51:57;4.33;;;2.70;;
27580;SDS011;15013;52.298;7.978;2022-08-30T00:56:57;5.70;;;2.63;;
27580;SDS011;15013;52.298;7.978;2022-08-30T01:01:58;4.47;;;2.78;;
27580;SDS011;15013;52.298;7.978;2022-08-30T01:06:59;3.15;;;2.65;;
27580;SDS011;15013;52.298;7.978;2022-08-30T01:12:00;4.05;;;3.05;;
27580;SDS011;15013;52.298;7.978;2022-08-30T01:17:00;5.22;;;3.10;;
27580;SDS011;15013;52.298;7.978;2022-08-30T01:22:07;2.65;;;2.35;;
27580;SDS011;15013;52.298;7.978;2022-08-30T01:27:10;10.32;;;3.00;;
27580;SDS011;15013;52.298;7.978;2022-08-30T01:32:17;4.25;;;2.97;;
27580;SDS011;15013;52.298;7.978;2022-08-30T01:37:19;4.72;;;2.97;;
27580;SDS011;15013;52.298;7.978;2022-08-30T01:42:20;3.70;;;2.60;;
27580;SDS011;15013;52.298;7.978;2022-08-30T01:47:21;3.35;;;2.60;;
27580;SDS011;15013;52.298;7.978;2022-08-30T01:52:22;3.00;;;2.70;;
27580;SDS011;15013;52.298;7.978;2022-08-30T01:57:22;3.40;;;2.60;;
27580;SDS011;15013;52.298;7.978;2022-08-30T02:02:26;3.90;;;2.75;;
27580;SDS011;15013;52.298;7.978;2022-08-30T02:07:27;6.55;;;3.65;;
27580;SDS011;15013;52.298;7.978;2022-08-30T02:12:27;4.57;;;3.57;;
27580;SDS011;15013;52.298;7.978;2022-08-30T02:17:29;3.78;;;2.75;;
27580;SDS011;15013;52.298;7.978;2022-08-30T02:22:29;4.23;;;3.40;;
27580;SDS011;15013;52.298;7.978;2022-08-30T02:27:30;6.40;;;2.93;;
27580;SDS011;15013;52.298;7.978;2022-08-30T02:32:30;4.87;;;3.53;;
27580;SDS011;15013;52.298;7.978;2022-08-30T02:37:30;7.37;;;3.33;;
27580;SDS011;15013;52.298;7.978;2022-08-30T02:42:31;6.13;;;3.30;;
27580;SDS011;15013;52.298;7.978;2022-08-30T02:47:31;5.43;;;2.97;;
27580;SDS011;15013;52.298;7.978;2022-08-30T02:52:31;7.70;;;3.20;;
27580;SDS011;15013;52.298;7.978;2022-08-30T02:57:32;4.07;;;2.77;;
27580;SDS011;15013;52.298;7.978;2022-08-30T03:02:32;3.22;;;2.92;;
27580;SDS011;15013;52.298;7.978;2022-08-30T03:07:33;5.43;;;2.83;;
27580;SDS011;15013;52.298;7.978;2022-08-30T03:12:33;4.87;;;3.03;;
27580;SDS011;15013;52.298;7.978;2022-08-30T03:17:33;2.83;;;2.57;;
27580;SDS011;15013;52.298;7.978;2022-08-30T03:22:34;5.07;;;3.03;;
27580;SDS011;15013;52.298;7.978;2022-08-30T03:27:35;4.75;;;3.03;;
27580;SDS011;15013;52.298;7.978;2022-08-30T03:32:35;3.95;;;2.95;;
27580;SDS011;15013;52.298;7.978;2022-08-30T03:37:36;4.70;;;3.45;;
27580;SDS011;15013;52.298;7.978;2022-08-30T03:42:36;5.00;;;2.88;;
27580;SDS011;15013;52.298;7.978;2022-08-30T03:47:36;6.82;;;3.63;;
27580;SDS011;15013;52.298;7.978;2022-08-30T03:52:37;3.75;;;2.95;;
27580;SDS011;15013;52.298;7.978;2022-08-30T03:57:37;3.17;;;2.67;;
27580;SDS011;15013;52.298;7.978;2022-08-30T04:02:39;5.60;;;3.05;;
27580;SDS011;15013;52.298;7.978;2022-08-30T04:07:40;6.90;;;3.28;;
27580;SDS011;15013;52.298;7.978;2022-08-30T04:12:41;4.77;;;3.00;;
27580;SDS011;15013;52.298;7.978;2022-08-30T04:17:41;7.50;;;3.63;;
27580;SDS011;15013;52.298;7.978;2022-08-30T04:22:41;10.18;;;4.00;;
27580;SDS011;15013;52.298;7.978;2022-08-30T04:27:43;8.20;;;5.80;;
27580;SDS011;15013;52.298;7.978;2022-08-30T04:32:43;5.90;;;5.18;;
27580;SDS011;15013;52.298;7.978;2022-08-30T04:37:43;9.55;;;6.75;;
27580;SDS011;15013;52.298;7.978;2022-08-30T04:42:44;9.23;;;7.23;;
27580;SDS011;15013;52.298;7.978;2022-08-30T04:47:44;9.37;;;7.33;;
27580;SDS011;15013;52.298;7.978;2022-08-30T04:52:45;10.73;;;7.38;;
27580;SDS011;15013;52.298;7.978;2022-08-30T04:57:45;8.73;;;6.57;;
27580;SDS011;15013;52.298;7.978;2022-08-30T05:02:46;8.50;;;6.80;;
27580;SDS011;15013;52.298;7.978;2022-08-30T05:07:46;13.23;;;7.00;;
27580;SDS011;15013;52.298;7.978;2022-08-30T05:12:46;10.97;;;6.43;;
27580;SDS011;15013;52.298;7.978;2022-08-30T05:17:47;10.33;;;7.30;;
27580;SDS011;15013;52.298;7.978;2022-08-30T05:22:47;14.63;;;8.15;;
27580;SDS011;15013;52.298;7.978;2022-08-30T05:27:51;14.45;;;9.10;;
27580;SDS011;15013;52.298;7.978;2022-08-30T05:32:52;9.55;;;8.15;;
27580;SDS011;15013;52.298;7.978;2022-08-30T05:37:52;14.57;;;8.18;;
27580;SDS011;15013;52.298;7.978;2022-08-30T05:42:53;10.15;;;8.10;;
27580;SDS011;15013;52.298;7.978;2022-08-30T05:47:53;10.17;;;7.87;;
27580;SDS011;15013;52.298;7.978;2022-08-30T05:52:54;11.67;;;7.33;;
27580;SDS011;15013;52.298;7.978;2022-08-30T05:57:54;11.63;;;7.37;;
27580;SDS011;15013;52.298;7.978;2022-08-30T06:02:54;10.07;;;6.15;;
27580;SDS011;15013;52.298;7.978;2022-08-30T06:07:55;8.73;;;5.73;;
27580;SDS011;15013;52.298;7.978;2022-08-30T06:12:55;10.77;;;5.97;;
27580;SDS011;15013;52.298;7.978;2022-08-30T06:17:56;9.70;;;6.05;;
27580;SDS011;15013;52.298;7.978;2022-08-30T06:22:56;12.90;;;5.83;;
27580;SDS011;15013;52.298;7.978;2022-08-30T06:27:57;10.23;;;5.45;;
27580;SDS011;15013;52.298;7.978;2022-08-30T06:32:57;7.13;;;5.20;;
27580;SDS011;15013;52.298;7.978;2022-08-30T06:37:57;7.07;;;5.57;;
27580;SDS011;15013;52.298;7.978;2022-08-30T06:42:58;9.82;;;5.47;;
27580;SDS011;15013;52.298;7.978;2022-08-30T06:47:58;6.82;;;4.80;;
27580;SDS011;15013;52.298;7.978;2022-08-30T06:52:59;8.57;;;5.03;;
27580;SDS011;15013;52.298;7.978;2022-08-30T06:58:04;7.07;;;4.63;;
27580;SDS011;15013;52.298;7.978;2022-08-30T07:03:05;6.83;;;4.10;;
27580;SDS011;15013;52.298;7.978;2022-08-30T07:08:05;7.43;;;5.13;;
27580;SDS011;15013;52.298;7.978;2022-08-30T07:13:06;7.57;;;4.50;;
27580;SDS011;15013;52.298;7.978;2022-08-30T07:18:07;6.30;;;4.50;;
27580;SDS011;15013;52.298;7.978;2022-08-30T07:23:25;10.75;;;4.95;;
27580;SDS011;15013;52.298;7.978;2022-08-30T07:28:26;7.17;;;3.70;;
27580;SDS011;15013;52.298;7.978;2022-08-30T07:33:26;6.20;;;3.30;;
27580;SDS011;15013;52.298;7.978;2022-08-30T07:38:26;5.47;;;3.27;;
27580;SDS011;15013;52.298;7.978;2022-08-30T07:43:27;11.25;;;3.58;;
27580;SDS011;15013;52.298;7.978;2022-08-30T07:48:28;6.03;;;3.47;;
27580;SDS011;15013;52.298;7.978;2022-08-30T07:53:28;10.20;;;3.57;;
27580;SDS011;15013;52.298;7.978;2022-08-30T07:58:28;9.87;;;3.23;;
27580;SDS011;15013;52.298;7.978;2022-08-30T08:03:29;7.00;;;3.00;;
27580;SDS011;15013;52.298;7.978;2022-08-30T08:08:30;9.75;;;2.97;;
27580;SDS011;15013;52.298;7.978;2022-08-30T08:13:30;15.73;;;3.13;;
27580;SDS011;15013;52.298;7.978;2022-08-30T08:18:30;3.40;;;2.67;;
27580;SDS011;15013;52.298;7.978;2022-08-30T08:23:31;5.75;;;2.47;;
27580;SDS011;15013;52.298;7.978;2022-08-30T08:28:32;5.97;;;2.78;;
27580;SDS011;15013;52.298;7.978;2022-08-30T08:33:32;3.50;;;2.33;;
27580;SDS011;15013;52.298;7.978;2022-08-30T08:38:32;10.33;;;2.53;;
27580;SDS011;15013;52.298;7.978;2022-08-30T08:43:33;4.80;;;2.80;;
27580;SDS011;15013;52.298;7.978;2022-08-30T08:53:38;2.47;;;1.92;;
27580;SDS011;15013;52.298;7.978;2022-08-30T09:03:42;5.25;;;2.17;;
27580;SDS011;15013;52.298;7.978;2022-08-30T09:08:42;7.47;;;2.70;;
27580;SDS011;15013;52.298;7.978;2022-08-30T09:13:43;7.97;;;2.30;;
27580;SDS011;15013;52.298;7.978;2022-08-30T09:18:45;3.50;;;2.00;;
27580;SDS011;15013;52.298;7.978;2022-08-30T09:23:50;5.53;;;2.22;;
27580;SDS011;15013;52.298;7.978;2022-08-30T09:28:53;8.20;;;2.10;;
27580;SDS011;15013;52.298;7.978;2022-08-30T09:33:54;4.70;;;2.40;;
27580;SDS011;15013;52.298;7.978;2022-08-30T09:39:02;5.35;;;2.55;;
27580;SDS011;15013;52.298;7.978;2022-08-30T09:44:22;5.13;;;1.80;;
27580;SDS011;15013;52.298;7.978;2022-08-30T09:49:36;70.20;;;11.30;;
27580;SDS011;15013;52.298;7.978;2022-08-30T09:54:40;5.07;;;1.58;;
27580;SDS011;15013;52.298;7.978;2022-08-30T09:59:48;3.53;;;1.58;;
27580;SDS011;15013;52.298;7.978;2022-08-30T10:05:04;2.25;;;1.95;;
27580;SDS011;15013;52.298;7.978;2022-08-30T10:15:21;2.80;;;1.60;;
27580;SDS011;15013;52.298;7.978;2022-08-30T10:20:32;24.17;;;3.47;;
27580;SDS011;15013;52.298;7.978;2022-08-30T10:25:37;4.40;;;2.15;;
27580;SDS011;15013;52.298;7.978;2022-08-30T10:30:39;1.80;;;1.30;;
27580;SDS011;15013;52.298;7.978;2022-08-30T10:36:14;3.88;;;1.33;;
27580;SDS011;15013;52.298;7.978;2022-08-30T10:46:27;3.33;;;1.40;;
27580;SDS011;15013;52.298;7.978;2022-08-30T10:51:33;2.55;;;1.20;;
27580;SDS011;15013;52.298;7.978;2022-08-30T10:56:36;1.13;;;1.02;;
27580;SDS011;15013;52.298;7.978;2022-08-30T11:16:55;1.63;;;1.27;;
27580;SDS011;15013;52.298;7.978;2022-08-30T11:22:12;2.55;;;1.20;;
27580;SDS011;15013;52.298;7.978;2022-08-30T11:42:53;1.23;;;1.15;;
27580;SDS011;15013;52.298;7.978;2022-08-30T12:03:26;2.13;;;1.30;;
27580;SDS011;15013;52.298;7.978;2022-08-30T12:18:34;3.37;;;1.00;;
27580;SDS011;15013;52.298;7.978;2022-08-30T12:28:39;1.30;;;1.20;;
27580;SDS011;15013;52.298;7.978;2022-08-30T12:33:41;2.43;;;1.47;;
27580;SDS011;15013;52.298;7.978;2022-08-30T12:38:42;3.65;;;1.20;;
27580;SDS011;15013;52.298;7.978;2022-08-30T12:43:46;6.20;;;1.70;;
27580;SDS011;15013;52.298;7.978;2022-08-30T12:48:47;2.75;;;1.40;;
27580;SDS011;15013;52.298;7.978;2022-08-30T12:53:48;4.10;;;1.58;;
27580;SDS011;15013;52.298;7.978;2022-08-30T12:58:51;2.70;;;1.50;;
27580;SDS011;15013;52.298;7.978;2022-08-30T13:03:54;4.60;;;1.40;;
27580;SDS011;15013;52.298;7.978;2022-08-30T13:08:54;6.72;;;1.50;;
27580;SDS011;15013;52.298;7.978;2022-08-30T13:13:56;1.95;;;1.40;;
27580;SDS011;15013;52.298;7.978;2022-08-30T13:24:16;6.70;;;1.50;;
27580;SDS011;15013;52.298;7.978;2022-08-30T13:29:18;1.60;;;1.50;;
27580;SDS011;15013;52.298;7.978;2022-08-30T13:34:18;4.35;;;1.33;;
27580;SDS011;15013;52.298;7.978;2022-08-30T13:39:21;1.90;;;1.25;;
27580;SDS011;15013;52.298;7.978;2022-08-30T13:44:22;1.48;;;1.30;;
27580;SDS011;15013;52.298;7.978;2022-08-30T13:49:23;5.17;;;1.40;;
27580;SDS011;15013;52.298;7.978;2022-08-30T13:54:24;2.35;;;1.45;;
27580;SDS011;15013;52.298;7.978;2022-08-30T13:59:24;3.60;;;1.30;;
27580;SDS011;15013;52.298;7.978;2022-08-30T14:04:25;3.45;;;1.50;;
27580;SDS011;15013;52.298;7.978;2022-08-30T14:09:26;3.90;;;1.50;;
27580;SDS011;15013;52.298;7.978;2022-08-30T14:14:26;1.73;;;1.40;;
27580;SDS011;15013;52.298;7.978;2022-08-30T14:19:26;5.70;;;1.50;;
27580;SDS011;15013;52.298;7.978;2022-08-30T14:24:27;3.70;;;1.47;;
27580;SDS011;15013;52.298;7.978;2022-08-30T14:29:27;4.47;;;1.60;;
27580;SDS011;15013;52.298;7.978;2022-08-30T14:34:30;1.90;;;1.25;;
27580;SDS011;15013;52.298;7.978;2022-08-30T14:39:30;3.77;;;1.30;;
27580;SDS011;15013;52.298;7.978;2022-08-30T14:44:31;5.85;;;1.67;;
27580;SDS011;15013;52.298;7.978;2022-08-30T14:49:32;3.40;;;1.42;;
27580;SDS011;15013;52.298;7.978;2022-08-30T14:54:32;2.80;;;1.52;;
27580;SDS011;15013;52.298;7.978;2022-08-30T14:59:33;2.50;;;1.35;;
27580;SDS011;15013;52.298;7.978;2022-08-30T15:04:34;2.77;;;1.50;;
27580;SDS011;15013;52.298;7.978;2022-08-30T15:09:34;6.43;;;1.73;;
27580;SDS011;15013;52.298;7.978;2022-08-30T15:14:35;2.75;;;1.23;;
27580;SDS011;15013;52.298;7.978;2022-08-30T15:19:36;4.63;;;1.50;;
27580;SDS011;15013;52.298;7.978;2022-08-30T15:24:38;4.03;;;1.65;;
27580;SDS011;15013;52.298;7.978;2022-08-30T15:29:39;6.75;;;1.48;;
27580;SDS011;15013;52.298;7.978;2022-08-30T15:34:40;3.83;;;1.40;;
27580;SDS011;15013;52.298;7.978;2022-08-30T15:39:40;3.53;;;1.63;;
27580;SDS011;15013;52.298;7.978;2022-08-30T15:44:41;4.68;;;1.58;;
27580;SDS011;15013;52.298;7.978;2022-08-30T15:49:41;4.83;;;1.57;;
27580;SDS011;15013;52.298;7.978;2022-08-30T15:54:41;9.70;;;2.07;;
27580;SDS011;15013;52.298;7.978;2022-08-30T15:59:42;1.90;;;1.80;;
27580;SDS011;15013;52.298;7.978;2022-08-30T16:04:42;3.33;;;1.60;;
27580;SDS011;15013;52.298;7.978;2022-08-30T16:09:43;5.63;;;1.70;;
27580;SDS011;15013;52.298;7.978;2022-08-30T16:14:43;2.28;;;1.80;;
27580;SDS011;15013;52.298;7.978;2022-08-30T16:19:44;1.70;;;1.60;;
27580;SDS011;15013;52.298;7.978;2022-08-30T16:24:44;2.47;;;1.37;;
27580;SDS011;15013;52.298;7.978;2022-08-30T16:29:44;1.53;;;1.43;;
27580;SDS011;15013;52.298;7.978;2022-08-30T16:34:45;2.53;;;1.60;;
27580;SDS011;15013;52.298;7.978;2022-08-30T16:39:45;3.57;;;1.80;;
27580;SDS011;15013;52.298;7.978;2022-08-30T16:44:45;3.00;;;2.13;;
27580;SDS011;15013;52.298;7.978;2022-08-30T16:49:46;2.93;;;1.37;;
27580;SDS011;15013;52.298;7.978;2022-08-30T16:54:46;3.00;;;1.53;;
27580;SDS011;15013;52.298;7.978;2022-08-30T16:59:46;5.57;;;2.00;;
27580;SDS011;15013;52.298;7.978;2022-08-30T17:04:47;4.07;;;1.70;;
27580;SDS011;15013;52.298;7.978;2022-08-30T17:09:47;2.57;;;1.67;;
27580;SDS011;15013;52.298;7.978;2022-08-30T17:14:47;3.90;;;1.80;;
27580;SDS011;15013;52.298;7.978;2022-08-30T17:19:48;8.80;;;1.77;;
27580;SDS011;15013;52.298;7.978;2022-08-30T17:24:48;2.60;;;1.70;;
27580;SDS011;15013;52.298;7.978;2022-08-30T17:29:49;2.28;;;1.75;;
27580;SDS011;15013;52.298;7.978;2022-08-30T17:34:50;2.33;;;1.55;;
27580;SDS011;15013;52.298;7.978;2022-08-30T17:39:50;3.15;;;1.70;;
27580;SDS011;15013;52.298;7.978;2022-08-30T17:44:51;2.53;;;1.92;;
27580;SDS011;15013;52.298;7.978;2022-08-30T17:49:52;4.05;;;2.00;;
27580;SDS011;15013;52.298;7.978;2022-08-30T17:54:52;4.97;;;2.27;;
27580;SDS011;15013;52.298;7.978;2022-08-30T17:59:52;2.80;;;2.00;;
27580;SDS011;15013;52.298;7.978;2022-08-30T18:04:53;2.37;;;2.17;;
27580;SDS011;15013;52.298;7.978;2022-08-30T18:09:56;3.60;;;2.17;;
27580;SDS011;15013;52.298;7.978;2022-08-30T18:14:57;2.93;;;2.20;;
27580;SDS011;15013;52.298;7.978;2022-08-30T18:19:57;7.20;;;2.72;;
27580;SDS011;15013;52.298;7.978;2022-08-30T18:24:58;5.73;;;2.63;;
27580;SDS011;15013;52.298;7.978;2022-08-30T18:29:58;2.72;;;2.53;;
27580;SDS011;15013;52.298;7.978;2022-08-30T18:34:59;5.23;;;2.43;;
27580;SDS011;15013;52.298;7.978;2022-08-30T18:39:59;3.80;;;2.30;;
27580;SDS011;15013;52.298;7.978;2022-08-30T18:45:00;3.97;;;2.47;;
27580;SDS011;15013;52.298;7.978;2022-08-30T18:50:00;4.10;;;2.40;;
27580;SDS011;15013;52.298;7.978;2022-08-30T18:55:00;2.83;;;2.63;;
27580;SDS011;15013;52.298;7.978;2022-08-30T19:00:01;3.80;;;2.63;;
27580;SDS011;15013;52.298;7.978;2022-08-30T19:05:02;5.18;;;2.30;;
27580;SDS011;15013;52.298;7.978;2022-08-30T19:10:03;5.57;;;2.17;;
27580;SDS011;15013;52.298;7.978;2022-08-30T19:15:04;4.07;;;2.00;;
27580;SDS011;15013;52.298;7.978;2022-08-30T19:20:06;3.28;;;2.08;;
27580;SDS011;15013;52.298;7.978;2022-08-30T19:25:08;4.55;;;2.08;;
27580;SDS011;15013;52.298;7.978;2022-08-30T19:30:11;4.93;;;2.22;;
27580;SDS011;15013;52.298;7.978;2022-08-30T19:35:12;4.47;;;2.70;;
27580;SDS011;15013;52.298;7.978;2022-08-30T19:40:13;6.63;;;2.08;;
27580;SDS011;15013;52.298;7.978;2022-08-30T19:45:15;11.15;;;2.88;;
27580;SDS011;15013;52.298;7.978;2022-08-30T19:50:19;5.17;;;2.07;;
27580;SDS011;15013;52.298;7.978;2022-08-30T19:55:20;5.80;;;2.60;;
27580;SDS011;15013;52.298;7.978;2022-08-30T20:00:22;3.25;;;1.95;;
27580;SDS011;15013;52.298;7.978;2022-08-30T20:05:23;2.33;;;2.10;;
27580;SDS011;15013;52.298;7.978;2022-08-30T20:10:23;3.53;;;3.22;;
27580;SDS011;15013;52.298;7.978;2022-08-30T20:15:23;4.03;;;2.27;;
27580;SDS011;15013;52.298;7.978;2022-08-30T20:20:25;3.25;;;2.60;;
27580;SDS011;15013;52.298;7.978;2022-08-30T20:25:25;5.20;;;2.78;;
27580;SDS011;15013;52.298;7.978;2022-08-30T20:30:26;4.38;;;2.90;;
27580;SDS011;15013;52.298;7.978;2022-08-30T20:35:26;3.97;;;2.63;;
27580;SDS011;15013;52.298;7.978;2022-08-30T20:40:27;5.47;;;2.83;;
27580;SDS011;15013;52.298;7.978;2022-08-30T20:45:27;6.43;;;2.27;;
27580;SDS011;15013;52.298;7.978;2022-08-30T20:50:27;4.63;;;2.40;;
27580;SDS011;15013;52.298;7.978;2022-08-30T20:55:28;3.55;;;2.22;;
27580;SDS011;15013;52.298;7.978;2022-08-30T21:00:29;6.28;;;2.20;;
27580;SDS011;15013;52.298;7.978;2022-08-30T21:05:29;4.13;;;2.37;;
27580;SDS011;15013;52.298;7.978;2022-08-30T21:10:30;4.35;;;2.05;;
27580;SDS011;15013;52.298;7.978;2022-08-30T21:15:30;6.53;;;2.07;;
27580;SDS011;15013;52.298;7.978;2022-08-30T21:20:30;5.57;;;2.23;;
27580;SDS011;15013;52.298;7.978;2022-08-30T21:25:31;3.42;;;1.88;;
27580;SDS011;15013;52.298;7.978;2022-08-30T21:30:33;4.68;;;2.10;;
27580;SDS011;15013;52.298;7.978;2022-08-30T21:35:35;3.72;;;2.20;;
27580;SDS011;15013;52.298;7.978;2022-08-30T21:40:54;3.75;;;2.10;;
27580;SDS011;15013;52.298;7.978;2022-08-30T21:45:55;2.10;;;1.90;;
27580;SDS011;15013;52.298;7.978;2022-08-30T21:50:56;6.22;;;2.13;;
27580;SDS011;15013;52.298;7.978;2022-08-30T21:55:57;4.03;;;2.00;;
27580;SDS011;15013;52.298;7.978;2022-08-30T22:00:57;6.20;;;2.40;;
27580;SDS011;15013;52.298;7.978;2022-08-30T22:05:57;2.13;;;1.93;;
27580;SDS011;15013;52.298;7.978;2022-08-30T22:10:58;3.30;;;2.23;;
27580;SDS011;15013;52.298;7.978;2022-08-30T22:15:58;4.70;;;2.00;;
27580;SDS011;15013;52.298;7.978;2022-08-30T22:20:59;6.30;;;2.77;;
27580;SDS011;15013;52.298;7.978;2022-08-30T22:25:59;3.70;;;2.43;;
27580;SDS011;15013;52.298;7.978;2022-08-30T22:31:00;3.90;;;2.03;;
27580;SDS011;15013;52.298;7.978;2022-08-30T22:36:05;6.90;;;2.80;;
27580;SDS011;15013;52.298;7.978;2022-08-30T22:41:09;2.70;;;2.35;;
27580;SDS011;15013;52.298;7.978;2022-08-30T22:46:11;1.95;;;1.85;;
27580;SDS011;15013;52.298;7.978;2022-08-30T22:51:11;2.17;;;1.80;;
27580;SDS011;15013;52.298;7.978;2022-08-30T22:56:14;4.18;;;1.98;;
27580;SDS011;15013;52.298;7.978;2022-08-30T23:01:25;2.63;;;1.70;;
27580;SDS011;15013;52.298;7.978;2022-08-30T23:06:26;5.95;;;2.00;;
27580;SDS011;15013;52.298;7.978;2022-08-30T23:11:27;3.20;;;1.70;;
27580;SDS011;15013;52.298;7.978;2022-08-30T23:16:27;5.63;;;1.95;;
27580;SDS011;15013;52.298;7.978;2022-08-30T23:21:28;6.63;;;1.88;;
27580;SDS011;15013;52.298;7.978;2022-08-30T23:26:29;1.55;;;1.35;;
27580;SDS011;15013;52.298;7.978;2022-08-30T23:31:48;3.53;;;1.98;;
27580;SDS011;15013;52.298;7.978;2022-08-30T23:37:07;3.63;;;1.48;;
27580;SDS011;15013;52.298;7.978;2022-08-30T23:42:26;2.25;;;1.50;;
27580;SDS011;15013;52.298;7.978;2022-08-30T23:47:45;1.73;;;1.35;;
27580;SDS011;15013;52.298;7.978;2022-08-30T23:53:04;1.17;;;1.08;;
27580;SDS011;15013;52.298;7.978;2022-08-30T23:58:22;3.00;;;1.23;;
